createdAt,value
2022-12-31T00:01:35.919Z,12.46
2022-12-31T00:02:36.124Z,12.34
2022-12-31T00:03:36.005Z,12.29
2022-12-31T00:04:36.006Z,12.30
2022-12-31T00:05:35.973Z,12.32
2022-12-31T00:08:35.937Z,12.34
2022-12-31T00:10:35.969Z,12.29
2022-12-31T00:11:35.952Z,12.26
2022-12-31T00:12:36.031Z,12.24
2022-12-31T00:13:36.013Z,12.18
2022-12-31T00:14:35.959Z,12.22
2022-12-31T00:15:36.001Z,12.19
2022-12-31T00:16:36.064Z,12.18
2022-12-31T00:17:36.027Z,12.16
2022-12-31T00:19:35.964Z,12.19
2022-12-31T00:20:36.049Z,12.23
2022-12-31T00:21:36.042Z,12.27
2022-12-31T00:22:36.018Z,12.32
2022-12-31T00:23:36.022Z,12.34
2022-12-31T00:24:37.245Z,12.36
2022-12-31T00:25:36.048Z,12.39
2022-12-31T00:26:36.030Z,12.43
2022-12-31T00:27:36.013Z,12.44
2022-12-31T00:28:36.048Z,12.45
2022-12-31T00:29:36.052Z,12.50
2022-12-31T00:30:36.048Z,12.56
2022-12-31T00:31:36.009Z,12.62
2022-12-31T00:32:36.044Z,12.66
2022-12-31T00:33:36.103Z,12.68
2022-12-31T00:34:36.067Z,12.57
2022-12-31T00:35:36.028Z,12.50
2022-12-31T00:36:36.031Z,12.45
2022-12-31T00:37:36.058Z,12.49
2022-12-31T00:38:36.098Z,12.56
2022-12-31T00:39:36.051Z,12.57
2022-12-31T00:40:36.036Z,12.60
2022-12-31T00:41:36.047Z,12.65
2022-12-31T00:42:36.047Z,12.69
2022-12-31T00:43:36.085Z,12.70
2022-12-31T00:44:36.038Z,12.69
2022-12-31T00:45:36.045Z,12.65
2022-12-31T00:47:36.081Z,12.66
2022-12-31T00:48:36.119Z,12.67
2022-12-31T00:49:36.038Z,12.71
2022-12-31T00:50:36.051Z,12.72
2022-12-31T00:51:36.148Z,12.71
2022-12-31T00:52:36.091Z,12.68
2022-12-31T00:53:36.120Z,12.67
2022-12-31T00:54:36.105Z,12.61
2022-12-31T00:55:36.091Z,12.56
2022-12-31T00:57:36.117Z,12.53
2022-12-31T00:58:36.092Z,12.55
2022-12-31T00:59:36.085Z,12.56
2022-12-31T01:00:36.074Z,12.60
2022-12-31T01:01:36.373Z,12.63
2022-12-31T01:02:36.327Z,12.64
2022-12-31T01:03:36.124Z,12.65
2022-12-31T01:04:36.087Z,12.64
2022-12-31T01:05:36.133Z,12.63
2022-12-31T01:06:36.181Z,12.62
2022-12-31T01:07:36.087Z,12.58
2022-12-31T01:08:36.100Z,12.60
2022-12-31T01:09:36.131Z,12.54
2022-12-31T01:11:36.144Z,12.56
2022-12-31T01:12:36.100Z,12.59
2022-12-31T01:13:36.136Z,12.60
2022-12-31T01:14:36.154Z,12.62
2022-12-31T01:15:36.129Z,12.60
2022-12-31T01:16:36.162Z,12.58
2022-12-31T01:17:36.173Z,12.54
2022-12-31T01:19:36.188Z,12.58
2022-12-31T01:20:36.177Z,12.60
2022-12-31T01:21:36.172Z,12.58
2022-12-31T01:22:36.174Z,12.51
2022-12-31T01:23:36.118Z,12.50
2022-12-31T01:24:36.132Z,12.48
2022-12-31T01:25:36.179Z,12.46
2022-12-31T01:26:36.128Z,12.47
2022-12-31T01:27:36.215Z,12.48
2022-12-31T01:28:36.205Z,12.44
2022-12-31T01:29:36.167Z,12.43
2022-12-31T01:30:36.217Z,12.37
2022-12-31T01:32:36.224Z,12.34
2022-12-31T01:33:36.188Z,12.38
2022-12-31T01:34:36.189Z,12.42
2022-12-31T01:35:36.186Z,12.47
2022-12-31T01:36:36.181Z,12.50
2022-12-31T01:37:36.259Z,12.41
2022-12-31T01:38:36.198Z,12.40
2022-12-31T01:39:36.224Z,12.43
2022-12-31T01:40:36.253Z,12.49
2022-12-31T01:41:36.204Z,12.58
2022-12-31T01:42:36.220Z,12.65
2022-12-31T01:43:36.222Z,12.70
2022-12-31T01:44:36.191Z,12.76
2022-12-31T01:45:36.269Z,12.81
2022-12-31T01:46:36.258Z,12.85
2022-12-31T01:47:36.241Z,12.86
2022-12-31T01:48:36.227Z,12.88
2022-12-31T01:49:36.190Z,12.91
2022-12-31T01:50:36.275Z,12.90
2022-12-31T01:51:36.185Z,12.91
2022-12-31T01:52:36.240Z,12.92
2022-12-31T01:54:36.226Z,12.93
2022-12-31T01:55:36.258Z,12.91
2022-12-31T01:56:36.202Z,12.88
2022-12-31T01:58:36.250Z,12.85
2022-12-31T01:59:36.260Z,12.84
2022-12-31T02:01:36.407Z,12.85
2022-12-31T02:02:36.321Z,12.83
2022-12-31T02:04:36.257Z,12.82
2022-12-31T02:05:36.276Z,12.81
2022-12-31T02:06:36.277Z,12.78
2022-12-31T02:07:36.238Z,12.76
2022-12-31T02:09:36.295Z,12.78
2022-12-31T02:10:36.297Z,12.81
2022-12-31T02:11:36.322Z,12.82
2022-12-31T02:12:36.352Z,12.85
2022-12-31T02:13:36.300Z,12.87
2022-12-31T02:14:36.266Z,12.86
2022-12-31T02:16:36.325Z,12.89
2022-12-31T02:17:36.340Z,12.92
2022-12-31T02:18:36.307Z,12.95
2022-12-31T02:19:36.260Z,12.98
2022-12-31T02:20:36.279Z,13.00
2022-12-31T02:21:36.316Z,12.90
2022-12-31T02:22:36.279Z,12.82
2022-12-31T02:23:36.277Z,12.83
2022-12-31T02:24:36.351Z,12.85
2022-12-31T02:25:36.271Z,12.92
2022-12-31T02:26:36.283Z,12.98
2022-12-31T02:27:36.311Z,13.02
2022-12-31T02:28:36.291Z,13.06
2022-12-31T02:29:36.333Z,13.07
2022-12-31T02:30:36.295Z,13.06
2022-12-31T02:31:36.353Z,13.05
2022-12-31T02:32:36.335Z,13.06
2022-12-31T02:33:36.316Z,13.09
2022-12-31T02:34:36.379Z,13.11
2022-12-31T02:35:36.313Z,13.12
2022-12-31T02:37:36.349Z,13.13
2022-12-31T02:38:36.329Z,13.15
2022-12-31T02:39:36.355Z,13.17
2022-12-31T02:40:36.354Z,13.18
2022-12-31T02:41:36.359Z,13.15
2022-12-31T02:42:36.366Z,13.14
2022-12-31T02:43:36.316Z,13.11
2022-12-31T02:44:36.361Z,13.08
2022-12-31T02:47:36.413Z,13.06
2022-12-31T02:48:36.331Z,13.05
2022-12-31T02:50:36.413Z,13.07
2022-12-31T02:51:36.367Z,13.11
2022-12-31T02:52:36.380Z,13.14
2022-12-31T02:58:36.352Z,13.13
2022-12-31T02:59:36.371Z,13.08
2022-12-31T03:00:36.467Z,12.97
2022-12-31T03:02:36.455Z,12.98
2022-12-31T03:03:36.406Z,12.99
2022-12-31T03:04:36.509Z,13.02
2022-12-31T03:05:36.464Z,13.03
2022-12-31T03:07:36.461Z,12.95
2022-12-31T03:08:36.421Z,12.96
2022-12-31T03:09:36.438Z,12.98
2022-12-31T03:10:36.472Z,13.01
2022-12-31T03:11:36.393Z,13.04
2022-12-31T03:12:36.433Z,13.09
2022-12-31T03:13:36.413Z,13.11
2022-12-31T03:14:36.462Z,13.12
2022-12-31T03:15:36.435Z,13.13
2022-12-31T03:16:36.537Z,13.15
2022-12-31T03:17:36.416Z,13.18
2022-12-31T03:18:36.414Z,13.19
2022-12-31T03:19:36.446Z,13.21
2022-12-31T03:21:36.436Z,13.16
2022-12-31T03:22:36.470Z,13.12
2022-12-31T03:23:36.507Z,13.11
2022-12-31T03:24:36.477Z,13.12
2022-12-31T03:25:36.500Z,13.14
2022-12-31T03:26:36.459Z,13.17
2022-12-31T03:27:36.439Z,13.20
2022-12-31T03:28:36.514Z,13.22
2022-12-31T03:30:36.472Z,13.20
2022-12-31T03:35:36.492Z,13.22
2022-12-31T03:36:36.535Z,13.23
2022-12-31T03:37:36.505Z,13.25
2022-12-31T03:38:36.532Z,13.27
2022-12-31T03:39:36.469Z,13.28
2022-12-31T03:40:36.521Z,13.26
2022-12-31T03:41:36.548Z,13.22
2022-12-31T03:42:36.462Z,13.21
2022-12-31T03:43:36.572Z,13.22
2022-12-31T03:44:36.518Z,13.23
2022-12-31T03:45:36.573Z,13.24
2022-12-31T03:46:36.510Z,13.26
2022-12-31T03:47:36.490Z,13.25
2022-12-31T03:50:36.552Z,13.26
2022-12-31T03:52:36.500Z,13.24
2022-12-31T03:53:36.492Z,13.25
2022-12-31T03:54:36.581Z,13.22
2022-12-31T03:55:36.567Z,13.24
2022-12-31T03:56:36.546Z,13.26
2022-12-31T03:57:36.541Z,13.29
2022-12-31T03:58:36.506Z,13.33
2022-12-31T03:59:36.590Z,13.35
2022-12-31T04:01:36.760Z,13.33
2022-12-31T04:03:36.560Z,13.34
2022-12-31T04:04:36.602Z,13.35
2022-12-31T04:07:36.538Z,13.31
2022-12-31T04:08:36.571Z,13.29
2022-12-31T04:10:36.591Z,13.30
2022-12-31T04:11:36.574Z,13.32
2022-12-31T04:13:36.611Z,13.33
2022-12-31T04:14:36.651Z,13.34
2022-12-31T04:15:36.565Z,13.35
2022-12-31T04:16:36.649Z,13.37
2022-12-31T04:17:36.609Z,13.36
2022-12-31T04:21:36.624Z,13.37
2022-12-31T04:23:36.657Z,13.40
2022-12-31T04:24:36.646Z,13.43
2022-12-31T04:25:36.633Z,13.44
2022-12-31T04:26:36.580Z,13.45
2022-12-31T04:27:36.646Z,13.46
2022-12-31T04:28:36.588Z,13.47
2022-12-31T04:29:36.635Z,13.49
2022-12-31T04:30:36.628Z,13.50
2022-12-31T04:31:36.634Z,13.51
2022-12-31T04:32:36.659Z,13.52
2022-12-31T04:33:36.640Z,13.54
2022-12-31T04:34:36.647Z,13.53
2022-12-31T04:36:36.609Z,13.51
2022-12-31T04:37:36.660Z,13.49
2022-12-31T04:38:36.632Z,13.46
2022-12-31T04:39:36.652Z,13.42
2022-12-31T04:40:36.663Z,13.40
2022-12-31T04:41:36.623Z,13.41
2022-12-31T04:42:36.762Z,13.42
2022-12-31T04:45:36.708Z,13.40
2022-12-31T04:48:36.659Z,13.43
2022-12-31T04:49:36.633Z,13.45
2022-12-31T04:50:36.694Z,13.46
2022-12-31T04:53:36.692Z,13.48
2022-12-31T04:54:36.691Z,13.49
2022-12-31T04:56:36.835Z,13.51
2022-12-31T04:57:36.701Z,13.53
2022-12-31T04:58:36.693Z,13.55
2022-12-31T04:59:36.677Z,13.56
2022-12-31T05:03:36.766Z,13.54
2022-12-31T05:04:36.667Z,13.52
2022-12-31T05:05:36.709Z,13.45
2022-12-31T05:07:36.722Z,13.34
2022-12-31T05:08:36.770Z,13.29
2022-12-31T05:09:36.734Z,13.23
2022-12-31T05:10:36.751Z,13.16
2022-12-31T05:11:36.754Z,13.19
2022-12-31T05:12:36.698Z,13.24
2022-12-31T05:13:36.810Z,13.29
2022-12-31T05:14:36.739Z,13.32
2022-12-31T05:15:36.755Z,13.36
2022-12-31T05:16:36.877Z,13.41
2022-12-31T05:17:36.750Z,13.46
2022-12-31T05:18:36.784Z,13.48
2022-12-31T05:19:36.757Z,13.49
2022-12-31T05:20:36.760Z,13.50
2022-12-31T05:21:36.759Z,13.53
2022-12-31T05:22:36.763Z,13.54
2022-12-31T05:24:36.765Z,13.53
2022-12-31T05:25:36.784Z,13.40
2022-12-31T05:26:36.817Z,13.27
2022-12-31T05:27:36.779Z,13.20
2022-12-31T05:29:36.760Z,13.19
2022-12-31T05:30:36.813Z,13.16
2022-12-31T05:31:36.823Z,13.09
2022-12-31T05:32:36.758Z,13.02
2022-12-31T05:33:36.800Z,13.05
2022-12-31T05:34:36.784Z,13.10
2022-12-31T05:35:36.794Z,13.11
2022-12-31T05:36:36.806Z,13.14
2022-12-31T05:37:36.805Z,13.20
2022-12-31T05:38:36.832Z,13.25
2022-12-31T05:39:36.777Z,13.29
2022-12-31T05:40:36.811Z,13.32
2022-12-31T05:41:36.867Z,13.34
2022-12-31T05:42:36.798Z,13.37
2022-12-31T05:43:36.861Z,13.38
2022-12-31T05:44:36.815Z,13.40
2022-12-31T05:45:36.817Z,13.42
2022-12-31T05:46:36.833Z,13.44
2022-12-31T05:47:36.840Z,13.45
2022-12-31T05:48:36.881Z,13.40
2022-12-31T05:49:36.846Z,13.39
2022-12-31T05:50:36.840Z,13.36
2022-12-31T05:52:37.508Z,13.35
2022-12-31T05:54:36.842Z,13.33
2022-12-31T05:55:36.847Z,13.32
2022-12-31T05:56:36.893Z,13.30
2022-12-31T05:58:37.956Z,13.18
2022-12-31T05:59:36.870Z,12.97
2022-12-31T06:00:36.875Z,12.71
2022-12-31T06:01:36.893Z,12.56
2022-12-31T06:02:36.883Z,12.60
2022-12-31T06:03:36.904Z,12.66
2022-12-31T06:04:36.913Z,12.74
2022-12-31T06:05:36.875Z,12.83
2022-12-31T06:06:36.874Z,12.90
2022-12-31T06:07:36.926Z,12.97
2022-12-31T06:08:36.843Z,12.98
2022-12-31T06:09:36.903Z,13.02
2022-12-31T06:10:36.864Z,13.05
2022-12-31T06:11:36.883Z,13.09
2022-12-31T06:12:36.907Z,13.10
2022-12-31T06:13:36.884Z,13.09
2022-12-31T06:14:42.238Z,13.04
2022-12-31T06:15:36.953Z,12.90
2022-12-31T06:16:36.893Z,12.83
2022-12-31T06:18:39.406Z,12.82
2022-12-31T06:19:36.939Z,12.84
2022-12-31T06:20:36.920Z,12.87
2022-12-31T06:21:36.917Z,12.88
2022-12-31T06:22:36.923Z,12.81
2022-12-31T06:23:36.924Z,12.73
2022-12-31T06:24:36.937Z,12.69
2022-12-31T06:25:36.948Z,12.64
2022-12-31T06:26:36.929Z,12.61
2022-12-31T06:27:36.945Z,12.59
2022-12-31T06:29:36.939Z,12.49
2022-12-31T06:30:36.889Z,12.50
2022-12-31T06:31:37.111Z,12.60
2022-12-31T06:32:36.960Z,12.72
2022-12-31T06:33:36.939Z,12.76
2022-12-31T06:34:36.984Z,12.73
2022-12-31T06:35:36.894Z,12.71
2022-12-31T06:36:36.899Z,12.77
2022-12-31T06:37:36.989Z,12.84
2022-12-31T06:38:36.942Z,12.89
2022-12-31T06:39:36.975Z,12.90
2022-12-31T06:40:36.929Z,12.91
2022-12-31T06:41:36.913Z,12.87
2022-12-31T06:42:37.006Z,12.75
2022-12-31T06:43:36.928Z,12.69
2022-12-31T06:44:37.009Z,12.67
2022-12-31T06:45:36.965Z,12.68
2022-12-31T06:46:37.041Z,12.65
2022-12-31T06:47:37.032Z,12.56
2022-12-31T06:48:36.989Z,12.52
2022-12-31T06:49:37.018Z,12.42
2022-12-31T06:50:36.989Z,12.43
2022-12-31T06:51:36.961Z,12.42
2022-12-31T06:52:37.040Z,12.44
2022-12-31T06:53:36.997Z,12.48
2022-12-31T06:54:37.023Z,12.49
2022-12-31T06:55:37.021Z,12.51
2022-12-31T06:56:36.989Z,12.48
2022-12-31T06:57:37.027Z,12.33
2022-12-31T06:58:37.009Z,12.31
2022-12-31T06:59:37.049Z,12.25
2022-12-31T07:00:37.007Z,12.20
2022-12-31T07:01:37.123Z,12.16
2022-12-31T07:02:37.111Z,12.13
2022-12-31T07:03:37.000Z,12.15
2022-12-31T07:04:37.054Z,12.04
2022-12-31T07:05:37.012Z,12.00
2022-12-31T07:06:36.987Z,12.02
2022-12-31T07:07:36.964Z,12.05
2022-12-31T07:08:37.035Z,12.16
2022-12-31T07:09:37.062Z,12.22
2022-12-31T07:10:37.031Z,12.28
2022-12-31T07:11:37.028Z,12.34
2022-12-31T07:12:37.031Z,12.42
2022-12-31T07:13:37.041Z,12.33
2022-12-31T07:14:37.076Z,12.31
2022-12-31T07:15:37.042Z,12.37
2022-12-31T07:16:37.071Z,12.41
2022-12-31T07:17:37.075Z,12.51
2022-12-31T07:18:37.041Z,12.59
2022-12-31T07:19:37.025Z,12.66
2022-12-31T07:20:37.088Z,12.68
2022-12-31T07:21:37.027Z,12.74
2022-12-31T07:22:37.057Z,12.82
2022-12-31T07:23:37.072Z,12.86
2022-12-31T07:24:37.065Z,12.90
2022-12-31T07:26:37.076Z,12.92
2022-12-31T07:28:37.081Z,12.86
2022-12-31T07:29:37.033Z,12.68
2022-12-31T07:30:37.111Z,12.56
2022-12-31T07:31:37.084Z,12.57
2022-12-31T07:32:37.126Z,12.58
2022-12-31T07:33:37.053Z,12.54
2022-12-31T07:34:37.037Z,12.53
2022-12-31T07:35:37.087Z,12.48
2022-12-31T07:36:37.108Z,12.47
2022-12-31T07:37:37.113Z,12.55
2022-12-31T07:38:37.094Z,12.62
2022-12-31T07:39:37.069Z,12.71
2022-12-31T07:40:37.143Z,12.76
2022-12-31T07:41:37.105Z,12.81
2022-12-31T07:42:37.115Z,12.79
2022-12-31T07:43:37.171Z,12.82
2022-12-31T07:44:37.069Z,12.89
2022-12-31T07:45:37.138Z,12.93
2022-12-31T07:46:37.175Z,12.96
2022-12-31T07:48:37.158Z,13.00
2022-12-31T07:49:37.126Z,12.99
2022-12-31T07:50:37.169Z,12.95
2022-12-31T07:51:37.132Z,12.97
2022-12-31T07:52:37.137Z,12.99
2022-12-31T07:53:37.173Z,13.01
2022-12-31T07:54:37.133Z,12.95
2022-12-31T07:56:37.137Z,12.86
2022-12-31T07:57:37.152Z,12.80
2022-12-31T07:58:37.190Z,12.74
2022-12-31T07:59:37.158Z,12.52
2022-12-31T08:00:37.173Z,12.38
2022-12-31T08:01:37.219Z,12.37
2022-12-31T08:02:37.177Z,12.40
2022-12-31T08:03:37.153Z,12.49
2022-12-31T08:04:37.190Z,12.59
2022-12-31T08:05:37.181Z,12.66
2022-12-31T08:06:37.160Z,12.67
2022-12-31T08:07:37.204Z,12.76
2022-12-31T08:08:37.231Z,12.81
2022-12-31T08:09:37.186Z,12.83
2022-12-31T08:10:37.171Z,12.93
2022-12-31T08:11:37.225Z,13.03
2022-12-31T08:12:37.201Z,13.06
2022-12-31T08:13:37.241Z,13.14
2022-12-31T08:14:37.217Z,13.26
2022-12-31T08:15:37.201Z,13.28
2022-12-31T08:16:37.281Z,13.30
2022-12-31T08:17:37.222Z,13.27
2022-12-31T08:18:37.196Z,13.28
2022-12-31T08:19:37.205Z,13.23
2022-12-31T08:20:37.164Z,13.21
2022-12-31T08:21:37.285Z,13.23
2022-12-31T08:22:37.201Z,13.28
2022-12-31T08:24:37.177Z,13.21
2022-12-31T08:25:37.179Z,13.22
2022-12-31T08:26:37.273Z,13.16
2022-12-31T08:27:37.200Z,13.14
2022-12-31T08:28:37.237Z,13.09
2022-12-31T08:29:37.208Z,13.22
2022-12-31T08:30:37.202Z,13.20
2022-12-31T08:31:37.301Z,13.25
2022-12-31T08:32:37.252Z,13.42
2022-12-31T08:33:37.245Z,13.49
2022-12-31T08:34:37.252Z,13.74
2022-12-31T08:35:37.267Z,14.20
2022-12-31T08:36:37.244Z,14.96
2022-12-31T08:37:37.264Z,16.09
2022-12-31T08:38:37.262Z,17.24
2022-12-31T08:39:37.274Z,18.06
2022-12-31T08:40:37.229Z,18.62
2022-12-31T08:41:42.494Z,19.19
2022-12-31T08:42:37.292Z,19.55
2022-12-31T08:43:37.226Z,20.03
2022-12-31T08:44:37.307Z,20.46
2022-12-31T08:45:37.267Z,20.97
2022-12-31T08:46:37.329Z,21.34
2022-12-31T08:47:38.752Z,21.65
2022-12-31T08:48:37.278Z,21.92
2022-12-31T08:49:37.281Z,22.36
2022-12-31T08:50:37.252Z,22.98
2022-12-31T08:51:37.293Z,23.55
2022-12-31T08:52:37.253Z,24.17
2022-12-31T08:53:37.324Z,24.72
2022-12-31T08:54:37.290Z,25.06
2022-12-31T08:55:37.310Z,25.31
2022-12-31T08:56:37.336Z,25.41
2022-12-31T08:57:37.297Z,25.39
2022-12-31T08:58:37.303Z,25.34
2022-12-31T08:59:37.310Z,25.40
2022-12-31T09:00:37.272Z,25.68
2022-12-31T09:01:37.389Z,26.00
2022-12-31T09:02:37.356Z,26.25
2022-12-31T09:03:37.284Z,26.57
2022-12-31T09:04:37.318Z,27.00
2022-12-31T09:05:37.338Z,27.50
2022-12-31T09:06:37.320Z,27.94
2022-12-31T09:07:37.337Z,28.28
2022-12-31T09:08:37.290Z,28.67
2022-12-31T09:09:37.332Z,28.97
2022-12-31T09:10:37.352Z,29.24
2022-12-31T09:11:37.308Z,29.41
2022-12-31T09:12:37.352Z,29.48
2022-12-31T09:13:37.327Z,29.53
2022-12-31T09:14:37.361Z,29.71
2022-12-31T09:15:37.315Z,29.85
2022-12-31T09:16:37.359Z,30.03
2022-12-31T09:17:37.375Z,30.27
2022-12-31T09:18:37.337Z,30.47
2022-12-31T09:19:37.372Z,30.72
2022-12-31T09:20:44.248Z,30.84
2022-12-31T09:21:37.379Z,31.02
2022-12-31T09:22:37.373Z,30.51
2022-12-31T09:24:37.395Z,30.52
2022-12-31T09:25:39.931Z,30.66
2022-12-31T09:26:37.381Z,30.91
2022-12-31T09:27:37.373Z,31.22
2022-12-31T09:28:37.339Z,31.41
2022-12-31T09:29:37.379Z,31.64
2022-12-31T09:30:37.395Z,31.93
2022-12-31T09:31:37.404Z,32.14
2022-12-31T09:32:37.393Z,32.39
2022-12-31T09:33:37.376Z,32.52
2022-12-31T09:34:37.390Z,32.50
2022-12-31T09:35:37.396Z,32.52
2022-12-31T09:36:37.422Z,32.60
2022-12-31T09:37:37.414Z,32.69
2022-12-31T09:38:37.402Z,32.94
2022-12-31T09:39:37.434Z,33.21
2022-12-31T09:40:37.447Z,33.40
2022-12-31T09:41:37.415Z,33.22
2022-12-31T09:42:37.437Z,33.28
2022-12-31T09:43:37.404Z,33.34
2022-12-31T09:44:37.404Z,33.46
2022-12-31T09:45:37.534Z,33.66
2022-12-31T09:46:37.436Z,33.82
2022-12-31T09:47:37.454Z,33.94
2022-12-31T09:48:37.441Z,33.88
2022-12-31T09:49:37.404Z,33.87
2022-12-31T09:50:37.437Z,33.67
2022-12-31T09:51:37.402Z,33.62
2022-12-31T09:52:37.467Z,33.46
2022-12-31T09:53:37.472Z,33.42
2022-12-31T09:54:37.458Z,33.22
2022-12-31T09:55:37.497Z,33.15
2022-12-31T09:56:37.471Z,32.96
2022-12-31T09:57:37.643Z,32.68
2022-12-31T09:58:37.508Z,32.55
2022-12-31T09:59:37.465Z,32.30
2022-12-31T10:00:37.488Z,32.03
2022-12-31T10:01:37.529Z,31.63
2022-12-31T10:02:37.707Z,31.40
2022-12-31T10:03:37.529Z,30.71
2022-12-31T10:04:37.447Z,30.01
2022-12-31T10:05:37.550Z,29.70
2022-12-31T10:06:37.502Z,29.65
2022-12-31T10:08:37.493Z,29.50
2022-12-31T10:09:37.462Z,29.41
2022-12-31T10:10:37.501Z,29.31
2022-12-31T10:11:37.508Z,29.23
2022-12-31T10:12:37.512Z,29.25
2022-12-31T10:13:37.529Z,28.92
2022-12-31T10:14:40.980Z,28.41
2022-12-31T10:15:37.480Z,28.06
2022-12-31T10:16:37.581Z,27.62
2022-12-31T10:17:37.526Z,27.12
2022-12-31T10:18:37.532Z,26.65
2022-12-31T10:19:37.525Z,26.10
2022-12-31T10:20:43.308Z,25.54
2022-12-31T10:21:37.574Z,24.99
2022-12-31T10:22:37.553Z,24.50
2022-12-31T10:23:37.540Z,23.96
2022-12-31T10:24:37.532Z,23.38
2022-12-31T10:25:37.888Z,23.06
2022-12-31T10:26:37.561Z,22.81
2022-12-31T10:27:37.549Z,22.63
2022-12-31T10:28:37.522Z,22.37
2022-12-31T10:29:37.542Z,22.23
2022-12-31T10:30:37.561Z,22.12
2022-12-31T10:31:37.572Z,21.96
2022-12-31T10:32:37.562Z,21.83
2022-12-31T10:33:37.593Z,21.73
2022-12-31T10:34:37.572Z,21.66
2022-12-31T10:35:37.553Z,21.62
2022-12-31T10:36:37.565Z,21.60
2022-12-31T10:37:37.541Z,21.50
2022-12-31T10:38:37.584Z,21.23
2022-12-31T10:39:37.603Z,20.97
2022-12-31T10:40:37.660Z,20.77
2022-12-31T10:41:37.637Z,20.67
2022-12-31T10:42:37.551Z,20.66
2022-12-31T10:45:37.592Z,20.50
2022-12-31T10:46:37.604Z,20.37
2022-12-31T10:47:37.609Z,20.26
2022-12-31T10:48:37.586Z,20.18
2022-12-31T10:49:37.633Z,20.06
2022-12-31T10:50:37.571Z,19.86
2022-12-31T10:51:37.615Z,19.72
2022-12-31T10:52:41.691Z,19.65
2022-12-31T10:53:37.623Z,19.50
2022-12-31T10:54:37.625Z,19.39
2022-12-31T10:55:37.635Z,19.19
2022-12-31T10:56:37.627Z,19.13
2022-12-31T10:57:37.671Z,19.09
2022-12-31T10:58:37.613Z,19.11
2022-12-31T10:59:37.642Z,19.24
2022-12-31T11:02:37.908Z,19.06
2022-12-31T11:03:37.660Z,18.79
2022-12-31T11:04:37.593Z,18.75
2022-12-31T11:05:37.666Z,18.78
2022-12-31T11:06:37.655Z,18.72
2022-12-31T11:07:37.664Z,18.71
2022-12-31T11:08:37.645Z,18.82
2022-12-31T11:09:37.655Z,18.94
2022-12-31T11:10:37.712Z,19.11
2022-12-31T11:11:37.660Z,19.27
2022-12-31T11:12:37.662Z,19.38
2022-12-31T11:13:37.712Z,19.37
2022-12-31T11:14:37.670Z,19.38
2022-12-31T11:15:37.703Z,19.45
2022-12-31T11:16:37.622Z,19.49
2022-12-31T11:17:37.671Z,19.43
2022-12-31T11:18:37.752Z,19.39
2022-12-31T11:19:37.685Z,19.32
2022-12-31T11:20:37.710Z,19.28
2022-12-31T11:21:41.505Z,19.20
2022-12-31T11:23:37.693Z,19.26
2022-12-31T11:24:37.737Z,19.39
2022-12-31T11:25:37.691Z,19.47
2022-12-31T11:26:37.648Z,19.39
2022-12-31T11:27:37.706Z,19.45
2022-12-31T11:28:37.716Z,19.52
2022-12-31T11:29:37.670Z,19.57
2022-12-31T11:30:37.908Z,19.62
2022-12-31T11:31:37.685Z,19.68
2022-12-31T11:32:37.707Z,19.73
2022-12-31T11:34:37.717Z,19.59
2022-12-31T11:35:37.717Z,19.56
2022-12-31T11:36:37.744Z,19.59
2022-12-31T11:37:37.737Z,19.63
2022-12-31T11:38:37.787Z,19.66
2022-12-31T11:39:37.685Z,19.68
2022-12-31T11:40:37.738Z,19.65
2022-12-31T11:41:37.772Z,19.63
2022-12-31T11:42:37.687Z,19.62
2022-12-31T11:44:37.754Z,19.57
2022-12-31T11:46:37.844Z,19.60
2022-12-31T11:47:44.727Z,19.59
2022-12-31T11:48:37.767Z,19.54
2022-12-31T11:50:37.734Z,19.57
2022-12-31T11:51:37.749Z,19.58
2022-12-31T11:52:37.790Z,19.57
2022-12-31T11:53:37.789Z,19.62
2022-12-31T11:54:37.801Z,19.65
2022-12-31T11:55:37.784Z,19.68
2022-12-31T11:56:37.789Z,19.71
2022-12-31T11:57:37.786Z,19.73
2022-12-31T11:58:37.785Z,19.74
2022-12-31T11:59:37.788Z,19.71
2022-12-31T12:00:37.755Z,19.66
2022-12-31T12:02:37.889Z,19.68
2022-12-31T12:04:37.794Z,19.70
2022-12-31T12:05:37.774Z,19.69
2022-12-31T12:06:37.751Z,19.67
2022-12-31T12:07:37.825Z,19.64
2022-12-31T12:10:37.791Z,19.63
2022-12-31T12:11:37.821Z,19.58
2022-12-31T12:12:37.852Z,19.46
2022-12-31T12:13:37.860Z,19.38
2022-12-31T12:14:37.860Z,19.30
2022-12-31T12:15:37.784Z,19.27
2022-12-31T12:16:37.862Z,19.23
2022-12-31T12:17:37.879Z,19.19
2022-12-31T12:18:37.832Z,19.20
2022-12-31T12:19:37.884Z,19.15
2022-12-31T12:20:37.838Z,19.10
2022-12-31T12:21:37.788Z,19.11
2022-12-31T12:22:37.841Z,19.14
2022-12-31T12:23:37.807Z,19.18
2022-12-31T12:24:37.879Z,19.22
2022-12-31T12:25:37.848Z,19.20
2022-12-31T12:26:37.859Z,19.18
2022-12-31T12:28:43.963Z,19.19
2022-12-31T12:29:37.869Z,19.18
2022-12-31T12:30:37.863Z,19.19
2022-12-31T12:32:37.876Z,19.18
2022-12-31T12:36:37.870Z,19.10
2022-12-31T12:37:37.871Z,19.09
2022-12-31T12:38:37.890Z,19.08
2022-12-31T12:39:37.884Z,19.06
2022-12-31T12:40:37.932Z,19.07
2022-12-31T12:41:37.883Z,19.09
2022-12-31T12:42:37.912Z,19.10
2022-12-31T12:44:37.896Z,19.08
2022-12-31T12:45:37.931Z,19.04
2022-12-31T12:46:37.919Z,19.00
2022-12-31T12:47:37.920Z,18.97
2022-12-31T12:48:37.879Z,18.94
2022-12-31T12:49:37.883Z,18.90
2022-12-31T12:50:37.941Z,18.85
2022-12-31T12:51:37.871Z,18.83
2022-12-31T12:52:37.896Z,18.84
2022-12-31T12:54:37.921Z,18.86
2022-12-31T12:55:38.007Z,18.89
2022-12-31T12:56:37.927Z,18.90
2022-12-31T12:57:37.916Z,18.91
2022-12-31T12:58:37.902Z,18.92
2022-12-31T13:00:37.977Z,18.90
2022-12-31T13:01:38.226Z,18.87
2022-12-31T13:02:38.067Z,18.86
2022-12-31T13:03:41.730Z,18.83
2022-12-31T13:04:37.959Z,18.82
2022-12-31T13:05:37.939Z,18.80
2022-12-31T13:06:37.963Z,18.79
2022-12-31T13:07:38.006Z,18.78
2022-12-31T13:08:37.949Z,18.77
2022-12-31T13:09:37.924Z,18.73
2022-12-31T13:10:37.967Z,18.70
2022-12-31T13:11:37.963Z,18.68
2022-12-31T13:13:13.607Z,18.66
2022-12-31T13:13:37.985Z,18.65
2022-12-31T13:15:37.966Z,18.64
2022-12-31T13:16:38.024Z,18.62
2022-12-31T13:17:38.004Z,18.60
2022-12-31T13:18:38.017Z,18.57
2022-12-31T13:19:37.942Z,18.54
2022-12-31T13:20:38.063Z,18.52
2022-12-31T13:21:38.007Z,18.50
2022-12-31T13:22:37.948Z,18.48
2022-12-31T13:23:39.886Z,18.46
2022-12-31T13:24:38.010Z,18.37
2022-12-31T13:25:38.006Z,18.26
2022-12-31T13:26:37.966Z,18.06
2022-12-31T13:27:38.025Z,17.98
2022-12-31T13:30:38.010Z,17.92
2022-12-31T13:31:38.056Z,17.89
2022-12-31T13:32:38.016Z,17.83
2022-12-31T13:33:38.051Z,17.81
2022-12-31T13:34:38.018Z,17.82
2022-12-31T13:35:38.079Z,17.84
2022-12-31T13:36:38.027Z,17.85
2022-12-31T13:37:38.057Z,17.86
2022-12-31T13:38:38.086Z,17.87
2022-12-31T13:39:38.033Z,17.88
2022-12-31T13:40:38.073Z,17.90
2022-12-31T13:41:38.051Z,17.91
2022-12-31T13:42:38.063Z,17.89
2022-12-31T13:43:38.093Z,17.87
2022-12-31T13:44:38.062Z,17.86
2022-12-31T13:46:38.026Z,17.87
2022-12-31T13:47:38.013Z,17.86
2022-12-31T13:49:38.071Z,17.84
2022-12-31T13:50:38.090Z,17.81
2022-12-31T13:51:38.070Z,17.79
2022-12-31T13:52:38.078Z,17.77
2022-12-31T13:53:38.105Z,17.76
2022-12-31T13:54:38.079Z,17.73
2022-12-31T13:55:39.501Z,17.70
2022-12-31T13:57:38.101Z,17.67
2022-12-31T13:58:38.092Z,17.62
2022-12-31T13:59:38.087Z,17.56
2022-12-31T14:00:38.207Z,17.52
2022-12-31T14:01:38.207Z,17.47
2022-12-31T14:02:38.213Z,17.42
2022-12-31T14:05:38.096Z,17.44
2022-12-31T14:06:38.140Z,17.45
2022-12-31T14:07:45.342Z,17.46
2022-12-31T14:08:38.172Z,17.44
2022-12-31T14:09:38.095Z,17.40
2022-12-31T14:10:38.106Z,17.41
2022-12-31T14:12:38.129Z,17.40
2022-12-31T14:13:38.171Z,17.39
2022-12-31T14:14:38.102Z,17.38
2022-12-31T14:15:38.125Z,17.32
2022-12-31T14:16:38.221Z,17.22
2022-12-31T14:17:38.133Z,17.11
2022-12-31T14:18:38.189Z,17.05
2022-12-31T14:19:41.366Z,17.06
2022-12-31T14:20:38.138Z,17.09
2022-12-31T14:21:38.194Z,17.03
2022-12-31T14:23:38.149Z,17.05
2022-12-31T14:24:38.207Z,17.01
2022-12-31T14:25:38.161Z,16.99
2022-12-31T14:27:38.166Z,17.01
2022-12-31T14:28:43.076Z,17.04
2022-12-31T14:29:38.207Z,17.06
2022-12-31T14:30:38.133Z,17.09
2022-12-31T14:31:38.244Z,17.10
2022-12-31T14:32:38.167Z,17.12
2022-12-31T14:33:38.133Z,17.08
2022-12-31T14:36:38.221Z,17.06
2022-12-31T14:37:38.194Z,17.05
2022-12-31T14:39:38.205Z,17.06